Decoded Metar for LDZA (ZAGREB in CROATIA) (IATA:ZAG) | Meteo·Mobile Aviation Weather
aviador You're here:

LDZA Decoded Metar

ZAGREB in CROATIA
Report Time2019-02-17 08:00:00
UTC Time2019-02-17 08:31:24
Flight Rules vfr VFR
WindCalm
Visibility9999 m
Phenomena:N/A
Clouds:N/A
Expected CloudBase > 800 ft AGL from Temp-Dew spread
CeilingNone
Temp01°C (ISA -13)
Dew Point-1°C (87% RH)
AAT-1.1°C
QNH1030 hPa
Density Alt-1,768 ft
Elevation351 ft
Report Wrong Elevation
Raw Report
LDZA 170800Z 00000KT CAVOK 01/M01 Q1030 NOSIG=

Extra information for LDZA:More info

Metar Taf Metar & Taf Last 4 Metars F.Rules Stats Wind Profile Meteogram Temp Stats Airport Information Weather charts Add Link Nearby VenuesMetar ALERT Operation Metar Decoded Social comments